sensor_id;sensor_type;location;lat;lon;timestamp;pressure;altitude;pressure_sealevel;temperature;humidity
55271;BME280;41132;47.162;9.470;2023-04-23T00:00:05;95921.50;;;13.52;100.00
55271;BME280;41132;47.162;9.470;2023-04-23T00:02:32;95908.44;;;13.44;100.00
55271;BME280;41132;47.162;9.470;2023-04-23T00:05:01;95914.81;;;13.50;100.00
55271;BME280;41132;47.162;9.470;2023-04-23T00:07:30;95920.09;;;13.35;100.00
55271;BME280;41132;47.162;9.470;2023-04-23T00:09:56;95910.97;;;13.31;100.00
55271;BME280;41132;47.162;9.470;2023-04-23T00:12:22;95924.47;;;13.43;100.00
55271;BME280;41132;47.162;9.470;2023-04-23T00:14:47;95932.78;;;13.46;100.00
55271;BME280;41132;47.162;9.470;2023-04-23T00:17:13;95916.72;;;13.41;100.00
55271;BME280;41132;47.162;9.470;2023-04-23T00:19:38;95924.00;;;13.39;100.00
55271;BME280;41132;47.162;9.470;2023-04-23T00:22:04;95893.78;;;13.20;100.00
55271;BME280;41132;47.162;9.470;2023-04-23T00:24:30;95921.59;;;13.38;100.00
55271;BME280;41132;47.162;9.470;2023-04-23T00:26:57;95913.50;;;13.24;100.00
55271;BME280;41132;47.162;9.470;2023-04-23T00:29:23;95920.94;;;13.21;100.00
55271;BME280;41132;47.162;9.470;2023-04-23T00:31:48;95922.44;;;13.08;100.00
55271;BME280;41132;47.162;9.470;2023-04-23T00:34:13;95923.19;;;13.02;100.00
55271;BME280;41132;47.162;9.470;2023-04-23T00:36:39;95924.28;;;12.93;100.00
55271;BME280;41132;47.162;9.470;2023-04-23T00:39:04;95928.63;;;13.01;100.00
55271;BME280;41132;47.162;9.470;2023-04-23T00:41:30;95921.91;;;12.98;100.00
55271;BME280;41132;47.162;9.470;2023-04-23T00:43:56;95920.72;;;13.01;100.00
55271;BME280;41132;47.162;9.470;2023-04-23T00:46:26;95925.97;;;13.01;100.00
55271;BME280;41132;47.162;9.470;2023-04-23T00:48:52;95930.28;;;13.02;100.00
55271;BME280;41132;47.162;9.470;2023-04-23T00:51:20;95937.34;;;13.01;100.00
55271;BME280;41132;47.162;9.470;2023-04-23T00:53:46;95928.53;;;12.94;100.00
55271;BME280;41132;47.162;9.470;2023-04-23T00:56:12;95941.69;;;13.09;100.00
55271;BME280;41132;47.162;9.470;2023-04-23T00:58:39;95930.91;;;13.04;100.00
55271;BME280;41132;47.162;9.470;2023-04-23T01:01:05;95929.44;;;13.01;100.00
55271;BME280;41132;47.162;9.470;2023-04-23T01:03:31;95932.44;;;12.98;100.00
55271;BME280;41132;47.162;9.470;2023-04-23T01:05:58;95929.44;;;13.01;100.00
55271;BME280;41132;47.162;9.470;2023-04-23T01:08:24;95946.41;;;13.13;100.00
55271;BME280;41132;47.162;9.470;2023-04-23T01:10:51;95946.16;;;13.08;100.00
55271;BME280;41132;47.162;9.470;2023-04-23T01:13:17;95936.25;;;12.95;100.00
55271;BME280;41132;47.162;9.470;2023-04-23T01:15:43;95941.06;;;12.92;100.00
55271;BME280;41132;47.162;9.470;2023-04-23T01:18:09;95941.91;;;12.92;100.00
55271;BME280;41132;47.162;9.470;2023-04-23T01:20:36;95954.97;;;13.01;100.00
55271;BME280;41132;47.162;9.470;2023-04-23T01:23:02;95951.13;;;13.03;100.00
55271;BME280;41132;47.162;9.470;2023-04-23T01:25:28;95944.16;;;12.95;100.00
55271;BME280;41132;47.162;9.470;2023-04-23T01:27:54;95951.25;;;12.95;100.00
55271;BME280;41132;47.162;9.470;2023-04-23T01:30:20;95948.06;;;13.00;100.00
55271;BME280;41132;47.162;9.470;2023-04-23T01:32:46;95946.06;;;13.02;100.00
55271;BME280;41132;47.162;9.470;2023-04-23T01:35:12;95957.59;;;13.15;100.00
55271;BME280;41132;47.162;9.470;2023-04-23T01:37:38;95948.31;;;13.05;100.00
55271;BME280;41132;47.162;9.470;2023-04-23T01:40:05;95956.06;;;13.06;100.00
55271;BME280;41132;47.162;9.470;2023-04-23T01:42:32;95946.72;;;12.89;100.00
55271;BME280;41132;47.162;9.470;2023-04-23T01:44:58;95954.88;;;12.94;100.00
55271;BME280;41132;47.162;9.470;2023-04-23T01:47:23;95962.34;;;12.90;100.00
55271;BME280;41132;47.162;9.470;2023-04-23T01:49:49;95951.34;;;12.87;100.00
55271;BME280;41132;47.162;9.470;2023-04-23T01:52:14;95963.06;;;12.84;100.00
55271;BME280;41132;47.162;9.470;2023-04-23T01:54:40;95961.16;;;12.93;100.00
55271;BME280;41132;47.162;9.470;2023-04-23T01:57:05;95959.78;;;12.97;100.00
55271;BME280;41132;47.162;9.470;2023-04-23T01:59:31;95949.19;;;12.90;100.00
55271;BME280;41132;47.162;9.470;2023-04-23T02:01:56;95961.34;;;12.91;100.00
55271;BME280;41132;47.162;9.470;2023-04-23T02:04:22;95946.28;;;12.70;100.00
55271;BME280;41132;47.162;9.470;2023-04-23T02:06:49;95924.41;;;12.55;100.00
55271;BME280;41132;47.162;9.470;2023-04-23T02:09:15;95940.38;;;12.68;100.00
55271;BME280;41132;47.162;9.470;2023-04-23T02:11:41;95969.16;;;12.85;100.00
55271;BME280;41132;47.162;9.470;2023-04-23T02:14:06;95949.38;;;12.74;100.00
55271;BME280;41132;47.162;9.470;2023-04-23T02:16:32;95918.06;;;12.49;100.00
55271;BME280;41132;47.162;9.470;2023-04-23T02:18:58;95963.34;;;12.74;100.00
55271;BME280;41132;47.162;9.470;2023-04-23T02:21:24;95968.88;;;12.65;100.00
55271;BME280;41132;47.162;9.470;2023-04-23T02:23:51;95949.75;;;12.56;100.00
55271;BME280;41132;47.162;9.470;2023-04-23T02:26:17;95979.22;;;12.66;100.00
55271;BME280;41132;47.162;9.470;2023-04-23T02:28:43;95984.69;;;12.80;100.00
55271;BME280;41132;47.162;9.470;2023-04-23T02:31:09;95945.28;;;12.57;100.00
55271;BME280;41132;47.162;9.470;2023-04-23T02:33:34;95969.59;;;12.73;100.00
55271;BME280;41132;47.162;9.470;2023-04-23T02:36:00;95965.44;;;12.64;100.00
55271;BME280;41132;47.162;9.470;2023-04-23T02:38:25;95968.34;;;12.69;100.00
55271;BME280;41132;47.162;9.470;2023-04-23T02:40:50;95992.50;;;12.88;100.00
55271;BME280;41132;47.162;9.470;2023-04-23T02:43:16;95982.31;;;12.85;100.00
55271;BME280;41132;47.162;9.470;2023-04-23T02:45:42;95993.66;;;12.85;100.00
55271;BME280;41132;47.162;9.470;2023-04-23T02:48:09;95957.53;;;12.79;100.00
55271;BME280;41132;47.162;9.470;2023-04-23T02:50:35;95987.13;;;12.96;100.00
55271;BME280;41132;47.162;9.470;2023-04-23T02:53:03;95987.88;;;12.90;100.00
55271;BME280;41132;47.162;9.470;2023-04-23T02:55:28;95978.50;;;12.87;100.00
55271;BME280;41132;47.162;9.470;2023-04-23T02:57:56;95961.06;;;12.71;100.00
55271;BME280;41132;47.162;9.470;2023-04-23T03:00:21;96006.19;;;12.98;100.00
55271;BME280;41132;47.162;9.470;2023-04-23T03:02:47;96004.91;;;12.94;100.00
55271;BME280;41132;47.162;9.470;2023-04-23T03:05:13;95986.59;;;12.86;100.00
55271;BME280;41132;47.162;9.470;2023-04-23T03:07:39;96005.91;;;13.08;100.00
55271;BME280;41132;47.162;9.470;2023-04-23T03:10:05;96005.47;;;13.04;100.00
55271;BME280;41132;47.162;9.470;2023-04-23T03:12:30;96005.47;;;13.04;100.00
55271;BME280;41132;47.162;9.470;2023-04-23T03:14:56;95991.22;;;12.84;100.00
55271;BME280;41132;47.162;9.470;2023-04-23T03:17:21;96004.47;;;12.90;100.00
55271;BME280;41132;47.162;9.470;2023-04-23T03:19:47;95983.50;;;12.82;100.00
55271;BME280;41132;47.162;9.470;2023-04-23T03:22:13;96004.03;;;12.87;100.00
55271;BME280;41132;47.162;9.470;2023-04-23T03:24:38;96000.22;;;12.74;100.00
55271;BME280;41132;47.162;9.470;2023-04-23T03:27:03;96016.47;;;12.93;100.00
55271;BME280;41132;47.162;9.470;2023-04-23T03:29:29;96010.19;;;12.94;100.00
55271;BME280;41132;47.162;9.470;2023-04-23T03:31:54;95999.84;;;12.92;100.00
55271;BME280;41132;47.162;9.470;2023-04-23T03:34:20;95995.84;;;12.82;100.00
55271;BME280;41132;47.162;9.470;2023-04-23T03:36:46;96016.75;;;12.83;100.00
55271;BME280;41132;47.162;9.470;2023-04-23T03:39:13;96023.38;;;12.79;100.00
55271;BME280;41132;47.162;9.470;2023-04-23T03:41:39;95994.50;;;12.56;100.00
55271;BME280;41132;47.162;9.470;2023-04-23T03:44:04;95985.94;;;12.69;100.00
55271;BME280;41132;47.162;9.470;2023-04-23T03:46:30;96005.91;;;12.78;100.00
55271;BME280;41132;47.162;9.470;2023-04-23T03:48:55;96023.91;;;12.74;100.00
55271;BME280;41132;47.162;9.470;2023-04-23T03:51:21;95985.69;;;12.64;100.00
55271;BME280;41132;47.162;9.470;2023-04-23T03:53:46;96006.72;;;12.64;100.00
55271;BME280;41132;47.162;9.470;2023-04-23T03:56:12;96018.44;;;12.76;100.00
55271;BME280;41132;47.162;9.470;2023-04-23T03:58:37;96021.19;;;12.68;100.00
55271;BME280;41132;47.162;9.470;2023-04-23T04:01:03;96024.69;;;12.60;100.00
55271;BME280;41132;47.162;9.470;2023-04-23T04:03:28;96024.41;;;12.55;100.00
55271;BME280;41132;47.162;9.470;2023-04-23T04:05:53;96016.16;;;12.43;100.00
55271;BME280;41132;47.162;9.470;2023-04-23T04:08:19;96012.22;;;12.39;100.00
55271;BME280;41132;47.162;9.470;2023-04-23T04:10:44;96038.31;;;12.64;100.00
55271;BME280;41132;47.162;9.470;2023-04-23T04:13:10;96036.06;;;12.61;100.00
55271;BME280;41132;47.162;9.470;2023-04-23T04:15:35;96028.88;;;12.54;100.00
55271;BME280;41132;47.162;9.470;2023-04-23T04:18:01;96041.78;;;12.64;100.00
55271;BME280;41132;47.162;9.470;2023-04-23T04:20:26;96044.78;;;12.61;100.00
55271;BME280;41132;47.162;9.470;2023-04-23T04:22:53;96038.88;;;12.59;100.00
55271;BME280;41132;47.162;9.470;2023-04-23T04:25:19;96009.81;;;12.38;100.00
55271;BME280;41132;47.162;9.470;2023-04-23T04:27:46;96032.41;;;12.47;100.00
55271;BME280;41132;47.162;9.470;2023-04-23T04:30:12;96039.66;;;12.45;100.00
55271;BME280;41132;47.162;9.470;2023-04-23T04:32:38;96048.53;;;12.44;100.00
55271;BME280;41132;47.162;9.470;2023-04-23T04:35:05;96056.63;;;12.42;100.00
55271;BME280;41132;47.162;9.470;2023-04-23T04:37:33;96034.75;;;12.42;100.00
55271;BME280;41132;47.162;9.470;2023-04-23T04:39:58;96021.84;;;12.32;100.00
55271;BME280;41132;47.162;9.470;2023-04-23T04:42:25;96012.13;;;12.32;100.00
55271;BME280;41132;47.162;9.470;2023-04-23T04:44:51;96022.00;;;12.30;100.00
55271;BME280;41132;47.162;9.470;2023-04-23T04:47:17;96005.13;;;12.25;100.00
55271;BME280;41132;47.162;9.470;2023-04-23T04:49:43;96040.84;;;12.42;100.00
55271;BME280;41132;47.162;9.470;2023-04-23T04:52:09;96023.94;;;12.37;100.00
55271;BME280;41132;47.162;9.470;2023-04-23T04:54:35;96022.50;;;12.34;100.00
55271;BME280;41132;47.162;9.470;2023-04-23T04:57:00;96038.81;;;12.44;100.00
55271;BME280;41132;47.162;9.470;2023-04-23T04:59:26;96029.47;;;12.42;100.00
55271;BME280;41132;47.162;9.470;2023-04-23T05:01:52;96043.28;;;12.44;100.00
55271;BME280;41132;47.162;9.470;2023-04-23T05:04:18;96000.84;;;12.24;100.00
55271;BME280;41132;47.162;9.470;2023-04-23T05:06:43;96052.19;;;12.43;100.00
55271;BME280;41132;47.162;9.470;2023-04-23T05:09:10;96016.22;;;12.35;100.00
55271;BME280;41132;47.162;9.470;2023-04-23T05:11:35;96031.03;;;12.36;100.00
55271;BME280;41132;47.162;9.470;2023-04-23T05:14:02;96037.56;;;12.40;100.00
55271;BME280;41132;47.162;9.470;2023-04-23T05:16:29;96038.28;;;12.34;100.00
55271;BME280;41132;47.162;9.470;2023-04-23T05:18:55;96050.25;;;12.37;100.00
55271;BME280;41132;47.162;9.470;2023-04-23T05:21:20;96025.91;;;12.20;100.00
55271;BME280;41132;47.162;9.470;2023-04-23T05:23:46;96048.09;;;12.40;100.00
55271;BME280;41132;47.162;9.470;2023-04-23T05:26:11;96055.78;;;12.42;100.00
55271;BME280;41132;47.162;9.470;2023-04-23T05:28:36;96011.91;;;12.19;100.00
55271;BME280;41132;47.162;9.470;2023-04-23T05:31:02;96045.34;;;12.33;100.00
55271;BME280;41132;47.162;9.470;2023-04-23T05:33:27;96055.13;;;12.25;100.00
55271;BME280;41132;47.162;9.470;2023-04-23T05:35:53;96028.34;;;12.21;100.00
55271;BME280;41132;47.162;9.470;2023-04-23T05:38:19;96048.69;;;12.27;100.00
55271;BME280;41132;47.162;9.470;2023-04-23T05:40:44;96009.91;;;12.06;100.00
55271;BME280;41132;47.162;9.470;2023-04-23T05:43:11;96033.91;;;12.26;100.00
55271;BME280;41132;47.162;9.470;2023-04-23T05:45:36;96036.34;;;12.28;100.00
55271;BME280;41132;47.162;9.470;2023-04-23T05:48:01;96038.28;;;12.34;100.00
55271;BME280;41132;47.162;9.470;2023-04-23T05:50:27;96054.16;;;12.41;100.00
55271;BME280;41132;47.162;9.470;2023-04-23T05:52:52;96043.38;;;12.36;100.00
55271;BME280;41132;47.162;9.470;2023-04-23T05:55:19;96049.78;;;12.33;100.00
55271;BME280;41132;47.162;9.470;2023-04-23T05:57:45;96055.69;;;12.35;100.00
55271;BME280;41132;47.162;9.470;2023-04-23T06:00:10;96017.97;;;12.05;100.00
55271;BME280;41132;47.162;9.470;2023-04-23T06:02:37;96039.16;;;12.26;100.00
55271;BME280;41132;47.162;9.470;2023-04-23T06:05:03;96037.88;;;12.22;100.00
55271;BME280;41132;47.162;9.470;2023-04-23T06:07:28;96065.22;;;12.36;100.00
55271;BME280;41132;47.162;9.470;2023-04-23T06:09:53;96042.25;;;12.30;100.00
55271;BME280;41132;47.162;9.470;2023-04-23T06:12:19;96044.06;;;12.29;100.00
55271;BME280;41132;47.162;9.470;2023-04-23T06:14:44;96051.06;;;12.37;100.00
55271;BME280;41132;47.162;9.470;2023-04-23T06:17:10;96032.22;;;12.10;100.00
55271;BME280;41132;47.162;9.470;2023-04-23T06:19:35;96042.66;;;12.19;100.00
55271;BME280;41132;47.162;9.470;2023-04-23T06:22:00;96051.59;;;12.32;100.00
55271;BME280;41132;47.162;9.470;2023-04-23T06:24:26;96050.94;;;12.30;100.00
55271;BME280;41132;47.162;9.470;2023-04-23T06:26:51;96037.94;;;12.14;100.00
55271;BME280;41132;47.162;9.470;2023-04-23T06:29:17;96024.34;;;12.10;100.00
55271;BME280;41132;47.162;9.470;2023-04-23T06:31:42;96045.34;;;12.33;100.00
55271;BME280;41132;47.162;9.470;2023-04-23T06:34:07;96040.25;;;12.32;100.00
55271;BME280;41132;47.162;9.470;2023-04-23T06:36:33;96030.28;;;12.27;100.00
55271;BME280;41132;47.162;9.470;2023-04-23T06:39:00;96026.69;;;12.43;100.00
55271;BME280;41132;47.162;9.470;2023-04-23T06:41:25;96027.75;;;12.49;100.00
55271;BME280;41132;47.162;9.470;2023-04-23T06:43:50;96031.22;;;12.49;100.00
55271;BME280;41132;47.162;9.470;2023-04-23T06:46:16;96033.66;;;12.36;100.00
55271;BME280;41132;47.162;9.470;2023-04-23T06:48:42;96032.69;;;12.52;100.00
55271;BME280;41132;47.162;9.470;2023-04-23T06:51:07;96039.59;;;12.68;100.00
55271;BME280;41132;47.162;9.470;2023-04-23T06:53:36;96044.22;;;12.81;100.00
55271;BME280;41132;47.162;9.470;2023-04-23T06:56:05;96030.97;;;12.59;100.00
55271;BME280;41132;47.162;9.470;2023-04-23T06:58:31;96039.34;;;12.78;100.00
55271;BME280;41132;47.162;9.470;2023-04-23T07:00:58;96043.09;;;12.83;100.00
55271;BME280;41132;47.162;9.470;2023-04-23T07:03:30;96022.69;;;12.47;100.00
55271;BME280;41132;47.162;9.470;2023-04-23T07:05:58;96028.28;;;12.67;100.00
55271;BME280;41132;47.162;9.470;2023-04-23T07:08:24;96020.84;;;12.86;100.00
55271;BME280;41132;47.162;9.470;2023-04-23T07:10:49;96034.97;;;12.85;100.00
55271;BME280;41132;47.162;9.470;2023-04-23T07:13:15;96029.63;;;12.93;100.00
55271;BME280;41132;47.162;9.470;2023-04-23T07:15:41;96033.34;;;12.99;100.00
55271;BME280;41132;47.162;9.470;2023-04-23T07:18:08;96029.06;;;12.83;100.00
55271;BME280;41132;47.162;9.470;2023-04-23T07:20:33;96025.25;;;12.85;100.00
55271;BME280;41132;47.162;9.470;2023-04-23T07:22:59;96012.63;;;12.66;100.00
55271;BME280;41132;47.162;9.470;2023-04-23T07:25:25;96027.72;;;12.87;100.00
55271;BME280;41132;47.162;9.470;2023-04-23T07:27:51;96023.91;;;12.74;100.00
55271;BME280;41132;47.162;9.470;2023-04-23T07:30:18;96028.34;;;12.89;100.00
55271;BME280;41132;47.162;9.470;2023-04-23T07:32:45;96023.25;;;13.17;100.00
55271;BME280;41132;47.162;9.470;2023-04-23T07:35:11;96009.81;;;13.27;100.00
55271;BME280;41132;47.162;9.470;2023-04-23T07:37:36;95986.94;;;13.64;100.00
55271;BME280;41132;47.162;9.470;2023-04-23T07:40:03;96014.34;;;14.06;100.00
55271;BME280;41132;47.162;9.470;2023-04-23T07:42:30;96008.50;;;14.95;100.00
55271;BME280;41132;47.162;9.470;2023-04-23T07:44:56;96006.59;;;15.23;100.00
55271;BME280;41132;47.162;9.470;2023-04-23T07:47:21;96003.09;;;15.64;100.00
55271;BME280;41132;47.162;9.470;2023-04-23T07:49:47;96003.41;;;15.83;100.00
55271;BME280;41132;47.162;9.470;2023-04-23T07:52:12;95989.09;;;15.71;100.00
55271;BME280;41132;47.162;9.470;2023-04-23T07:54:38;95996.66;;;15.80;98.70
55271;BME280;41132;47.162;9.470;2023-04-23T07:57:03;95985.81;;;15.69;98.79
55271;BME280;41132;47.162;9.470;2023-04-23T07:59:28;95989.69;;;15.66;100.00
55271;BME280;41132;47.162;9.470;2023-04-23T08:01:54;95975.38;;;15.40;99.71
55271;BME280;41132;47.162;9.470;2023-04-23T08:04:19;95987.75;;;15.33;96.58
55271;BME280;41132;47.162;9.470;2023-04-23T08:06:45;95991.81;;;16.44;96.60
55271;BME280;41132;47.162;9.470;2023-04-23T08:09:10;95956.53;;;16.70;90.96
55271;BME280;41132;47.162;9.470;2023-04-23T08:11:36;95987.22;;;17.24;86.02
55271;BME280;41132;47.162;9.470;2023-04-23T08:14:01;95966.63;;;17.65;86.49
55271;BME280;41132;47.162;9.470;2023-04-23T08:16:27;95958.75;;;18.84;76.48
55271;BME280;41132;47.162;9.470;2023-04-23T08:18:52;95945.63;;;18.45;75.15
55271;BME280;41132;47.162;9.470;2023-04-23T08:21:18;95959.50;;;18.47;76.30
55271;BME280;41132;47.162;9.470;2023-04-23T08:23:43;95956.56;;;19.17;76.89
55271;BME280;41132;47.162;9.470;2023-04-23T08:26:09;95938.22;;;20.42;63.96
55271;BME280;41132;47.162;9.470;2023-04-23T08:28:34;95918.81;;;20.23;64.66
55271;BME280;41132;47.162;9.470;2023-04-23T08:31:00;95935.09;;;19.79;63.19
55271;BME280;41132;47.162;9.470;2023-04-23T08:33:26;95932.91;;;21.18;60.29
55271;BME280;41132;47.162;9.470;2023-04-23T08:35:51;95915.13;;;20.95;60.94
55271;BME280;41132;47.162;9.470;2023-04-23T08:38:17;95926.97;;;21.68;57.22
55271;BME280;41132;47.162;9.470;2023-04-23T08:40:44;95916.13;;;22.37;50.82
55271;BME280;41132;47.162;9.470;2023-04-23T08:43:18;95914.06;;;22.10;54.36
55271;BME280;41132;47.162;9.470;2023-04-23T08:45:46;95916.03;;;22.32;51.68
55271;BME280;41132;47.162;9.470;2023-04-23T08:48:12;95898.81;;;22.62;52.13
55271;BME280;41132;47.162;9.470;2023-04-23T08:50:41;95896.50;;;23.31;51.07
55271;BME280;41132;47.162;9.470;2023-04-23T08:53:07;95887.53;;;23.97;50.40
55271;BME280;41132;47.162;9.470;2023-04-23T08:55:33;95892.06;;;24.29;46.79
55271;BME280;41132;47.162;9.470;2023-04-23T08:57:59;95884.75;;;23.60;48.16
55271;BME280;41132;47.162;9.470;2023-04-23T09:00:26;95858.81;;;23.92;48.86
55271;BME280;41132;47.162;9.470;2023-04-23T09:02:52;95871.97;;;24.31;47.42
55271;BME280;41132;47.162;9.470;2023-04-23T09:05:17;95878.59;;;24.56;47.09
55271;BME280;41132;47.162;9.470;2023-04-23T09:07:43;95881.47;;;24.92;45.97
55271;BME280;41132;47.162;9.470;2023-04-23T09:10:09;95872.97;;;24.57;44.66
55271;BME280;41132;47.162;9.470;2023-04-23T09:12:37;95860.19;;;24.75;44.48
55271;BME280;41132;47.162;9.470;2023-04-23T09:15:04;95859.13;;;25.39;45.77
55271;BME280;41132;47.162;9.470;2023-04-23T09:17:46;95855.44;;;24.97;44.48
55271;BME280;41132;47.162;9.470;2023-04-23T09:20:12;95848.78;;;24.52;43.96
55271;BME280;41132;47.162;9.470;2023-04-23T09:22:44;95853.41;;;24.20;48.79
55271;BME280;41132;47.162;9.470;2023-04-23T09:25:11;95844.16;;;24.95;46.34
55271;BME280;41132;47.162;9.470;2023-04-23T09:27:37;95833.38;;;24.80;45.18
55271;BME280;41132;47.162;9.470;2023-04-23T09:30:04;95829.59;;;24.28;46.80
55271;BME280;41132;47.162;9.470;2023-04-23T09:32:32;95802.25;;;23.89;47.69
55271;BME280;41132;47.162;9.470;2023-04-23T09:34:58;95820.03;;;23.73;48.00
55271;BME280;41132;47.162;9.470;2023-04-23T09:37:26;95811.09;;;24.32;47.99
55271;BME280;41132;47.162;9.470;2023-04-23T09:39:51;95811.84;;;24.22;45.86
55271;BME280;41132;47.162;9.470;2023-04-23T09:42:26;95826.91;;;24.28;45.45
55271;BME280;41132;47.162;9.470;2023-04-23T09:45:01;95814.72;;;23.46;46.54
55271;BME280;41132;47.162;9.470;2023-04-23T09:47:31;95809.28;;;23.08;48.42
55271;BME280;41132;47.162;9.470;2023-04-23T09:49:57;95801.97;;;23.26;46.67
55271;BME280;41132;47.162;9.470;2023-04-23T09:52:23;95796.75;;;23.73;45.89
55271;BME280;41132;47.162;9.470;2023-04-23T09:54:49;95797.91;;;24.20;45.99
55271;BME280;41132;47.162;9.470;2023-04-23T09:57:14;95783.50;;;24.31;44.56
55271;BME280;41132;47.162;9.470;2023-04-23T09:59:40;95778.44;;;24.40;44.62
55271;BME280;41132;47.162;9.470;2023-04-23T10:02:07;95789.72;;;25.10;44.08
55271;BME280;41132;47.162;9.470;2023-04-23T10:04:34;95785.53;;;24.62;44.19
55271;BME280;41132;47.162;9.470;2023-04-23T10:07:01;95785.34;;;24.84;47.41
55271;BME280;41132;47.162;9.470;2023-04-23T10:09:28;95760.03;;;24.06;43.78
55271;BME280;41132;47.162;9.470;2023-04-23T10:11:55;95767.22;;;25.21;45.14
55271;BME280;41132;47.162;9.470;2023-04-23T10:14:22;95769.88;;;25.16;45.80
55271;BME280;41132;47.162;9.470;2023-04-23T10:16:50;95757.75;;;24.30;44.25
55271;BME280;41132;47.162;9.470;2023-04-23T10:19:21;95771.00;;;24.52;45.33
55271;BME280;41132;47.162;9.470;2023-04-23T10:22:07;95754.06;;;25.20;45.00
55271;BME280;41132;47.162;9.470;2023-04-23T10:24:38;95766.63;;;24.94;44.07
55271;BME280;41132;47.162;9.470;2023-04-23T10:27:09;95754.56;;;25.17;43.67
55271;BME280;41132;47.162;9.470;2023-04-23T10:29:35;95759.59;;;23.82;45.42
55271;BME280;41132;47.162;9.470;2023-04-23T10:32:02;95755.28;;;23.76;46.28
55271;BME280;41132;47.162;9.470;2023-04-23T10:34:30;95752.91;;;23.52;47.26
55271;BME280;41132;47.162;9.470;2023-04-23T10:36:56;95758.22;;;22.93;47.42
55271;BME280;41132;47.162;9.470;2023-04-23T10:39:25;95745.16;;;22.69;48.32
55271;BME280;41132;47.162;9.470;2023-04-23T10:41:53;95740.78;;;22.19;47.95
55271;BME280;41132;47.162;9.470;2023-04-23T10:44:19;95737.31;;;21.63;45.58
55271;BME280;41132;47.162;9.470;2023-04-23T10:46:53;95723.06;;;21.23;50.37
55271;BME280;41132;47.162;9.470;2023-04-23T10:49:22;95734.31;;;21.76;51.31
55271;BME280;41132;47.162;9.470;2023-04-23T10:51:48;95729.47;;;22.12;53.24
55271;BME280;41132;47.162;9.470;2023-04-23T10:54:15;95723.72;;;21.47;51.04
55271;BME280;41132;47.162;9.470;2023-04-23T10:56:41;95720.19;;;21.13;51.08
55271;BME280;41132;47.162;9.470;2023-04-23T10:59:17;95725.00;;;21.62;51.12
55271;BME280;41132;47.162;9.470;2023-04-23T11:01:49;95717.06;;;21.50;56.25
55271;BME280;41132;47.162;9.470;2023-04-23T11:04:28;95732.97;;;21.11;55.62
55271;BME280;41132;47.162;9.470;2023-04-23T11:06:56;95731.97;;;21.00;54.31
55271;BME280;41132;47.162;9.470;2023-04-23T11:09:41;95716.75;;;20.55;54.77
55271;BME280;41132;47.162;9.470;2023-04-23T11:14:50;95718.44;;;20.21;57.31
55271;BME280;41132;47.162;9.470;2023-04-23T11:17:17;95711.97;;;20.05;59.72
55271;BME280;41132;47.162;9.470;2023-04-23T11:22:59;95698.81;;;19.98;62.60
55271;BME280;41132;47.162;9.470;2023-04-23T11:25:26;95701.59;;;19.92;65.08
55271;BME280;41132;47.162;9.470;2023-04-23T11:27:54;95687.00;;;19.94;58.95
55271;BME280;41132;47.162;9.470;2023-04-23T11:30:23;95693.22;;;20.23;65.91
55271;BME280;41132;47.162;9.470;2023-04-23T11:32:50;95690.88;;;20.27;62.46
55271;BME280;41132;47.162;9.470;2023-04-23T11:35:18;95673.00;;;20.28;66.07
55271;BME280;41132;47.162;9.470;2023-04-23T11:37:45;95675.84;;;20.50;65.18
55271;BME280;41132;47.162;9.470;2023-04-23T11:40:12;95670.41;;;20.56;61.54
55271;BME280;41132;47.162;9.470;2023-04-23T11:42:51;95670.97;;;20.58;63.27
55271;BME280;41132;47.162;9.470;2023-04-23T11:45:20;95658.66;;;20.29;59.61
55271;BME280;41132;47.162;9.470;2023-04-23T11:47:55;95664.03;;;20.05;53.96
55271;BME280;41132;47.162;9.470;2023-04-23T11:50:30;95673.47;;;19.84;59.57
55271;BME280;41132;47.162;9.470;2023-04-23T11:53:02;95659.84;;;19.80;59.19
55271;BME280;41132;47.162;9.470;2023-04-23T11:55:28;95649.53;;;19.72;61.21
55271;BME280;41132;47.162;9.470;2023-04-23T11:57:55;95637.94;;;19.55;59.01
55271;BME280;41132;47.162;9.470;2023-04-23T12:00:23;95643.41;;;19.72;62.42
55271;BME280;41132;47.162;9.470;2023-04-23T12:02:56;95647.66;;;19.61;64.23
55271;BME280;41132;47.162;9.470;2023-04-23T12:05:37;95642.59;;;19.48;60.43
55271;BME280;41132;47.162;9.470;2023-04-23T12:08:07;95630.19;;;19.41;58.81
55271;BME280;41132;47.162;9.470;2023-04-23T12:13:16;95634.34;;;19.02;64.21
55271;BME280;41132;47.162;9.470;2023-04-23T12:15:49;95620.84;;;19.04;65.03
55271;BME280;41132;47.162;9.470;2023-04-23T12:18:15;95621.53;;;18.87;64.15
55271;BME280;41132;47.162;9.470;2023-04-23T12:20:41;95614.47;;;18.81;65.95
55271;BME280;41132;47.162;9.470;2023-04-23T12:23:07;95611.44;;;18.77;67.66
55271;BME280;41132;47.162;9.470;2023-04-23T12:25:32;95610.00;;;18.75;63.58
55271;BME280;41132;47.162;9.470;2023-04-23T12:27:59;95586.75;;;18.47;64.49
55271;BME280;41132;47.162;9.470;2023-04-23T12:30:29;95610.00;;;18.63;65.88
55271;BME280;41132;47.162;9.470;2023-04-23T12:32:59;95603.38;;;18.42;63.44
55271;BME280;41132;47.162;9.470;2023-04-23T12:35:48;95603.59;;;18.41;66.42
55271;BME280;41132;47.162;9.470;2023-04-23T12:38:40;95597.66;;;18.27;67.04
55271;BME280;41132;47.162;9.470;2023-04-23T12:41:06;95587.94;;;18.32;66.90
55271;BME280;41132;47.162;9.470;2023-04-23T12:43:32;95592.41;;;18.50;72.74
55271;BME280;41132;47.162;9.470;2023-04-23T12:45:57;95586.06;;;18.51;66.61
55271;BME280;41132;47.162;9.470;2023-04-23T12:48:22;95580.84;;;18.45;67.03
55271;BME280;41132;47.162;9.470;2023-04-23T12:50:48;95589.16;;;18.48;67.03
55271;BME280;41132;47.162;9.470;2023-04-23T12:53:13;95580.03;;;18.44;68.11
55271;BME280;41132;47.162;9.470;2023-04-23T12:55:39;95580.22;;;18.31;68.30
55271;BME280;41132;47.162;9.470;2023-04-23T12:58:04;95565.97;;;18.13;65.03